NWS Home NWS Lubbock West Texas Mesonet Central Sector Latest Conditions as of 0317 PM, Tue Sep 18, 2018

Latest   N   C   S   Daily Sum   3hrΔ   24hrΔ   Soil Data 
Site Map   24hr Precip   72hr Precip   Google Plot


Station Time of Last Temp Dew Pt. RH Wind Direction Wind Speed Wind Gust Max Wind Max Temp Min Temp Max RH Min RH Altimeter 1HR Rain Today's Rain Solar Rad
Abernathy 5ENE  03:10 PM 82 64 57% S1521 26 mph 192° @ 0145 PM 82 64 99 57 30.03" 0 0.00 723
Aiken 3WSW  03:10 PM 83 64 52% S1618 26 mph 217° @ 0130 PM 85 64 96 49 30.02" 0 0.00 477
Amherst 1NE  03:10 PM 81 60 51% S1422 22 mph 184° @ 0245 PM 82 62 100 50 30.03" 0 0.01 795
Anton 6SSW  03:10 PM 82 64 58% S1623 24 mph 185° @ 0300 PM 82 64 99 56 30.02" 0 0.00 453
Aspermont 3NE  03:10 PM 87 68 54% S1117 23 mph 177° @ 0255 PM 90 66 98 50 29.95" 0 0.00 238
Bootleg 11WNW  03:10 PM 83 61 48% S1722 28 mph 175° @ 0234 PM 84 63 93 46 30.05" 0 0.00 776
Brownfield 2S  03:10 PM 84 64 53% S914 18 mph 187° @ 0300 PM 84 65 92 53 30.02" 0 0.00 878
Caprock Canyons State Park  03:10 PM 87 65 48% S1519 29 mph 191° @ 0214 PM 88 69 86 46 29.97" 0 0.00 479
Childress 2NNE  03:10 PM 92 64 42% S1525 30 mph 181° @ 0120 PM 92 71 84 42 29.93" 0 0.00 864
Clarendon 2WSW  03:10 PM 87 63 46% S1621 27 mph 178° @ 0250 PM 87 66 89 46 29.97" 0 0.00 640
Claude 12SW  03:10 PM 86 63 46% S1721 25 mph 198° @ 0208 PM 87 67 89 43 29.99" 0 0.00 916
Crowell 1E  03:10 PM 92 70 48% S1316 24 mph 200° @ 1256 PM 92 70 92 47 29.93" 0 0.00 823
Denver City 7WNW  03:10 PM 81 61 52% S1219 20 mph 157° @ 0145 PM 82 62 99 52 30.03" 0 0.00 342
Dimmitt 2NE  03:10 PM 82 62 54% S1825 25 mph 183° @ 0310 PM 82 62 100 54 30.03" 0 0.00 801
Dora NM 2SW  03:10 PM 83 61 49% S1318 20 mph 185° @ 0230 PM 83 61 97 49 30.04" 0 0.00 794
Earth 9WSW  03:10 PM 83 63 52% S1422 25 mph 169° @ 0236 PM 83 62 98 50 30.03" 0 0.00 806
Estelline 3SSE  03:10 PM 91 66 44% S1519 25 mph 185° @ 0249 PM 93 68 91 41 29.92" 0 0.00 928
Floydada 2NNE  03:10 PM 87 63 45% S1824 27 mph 183° @ 0155 PM 87 65 95 44 30.00" 0 0.00 693
Fluvanna 3WNW  03:10 PM 86 64 50% S1623 27 mph 177° @ 0110 PM 86 68 94 50 29.99" 0 0.00 673
Friona 2NE  03:10 PM 84 61 50% S1520 25 mph 189° @ 0305 PM 84 62 98 48 30.03" 0 0.00 819
Gail 2ESE  03:10 PM 88 66 52% S1117 24 mph 155° @ 0300 PM 88 67 94 52 29.97" 0 0.00 914
Goodlett 3W  03:10 PM 91 64 41% S1824 27 mph 201° @ 0300 PM 91 70 84 41 29.91" 0 0.00 813
Graham 5SSW  03:10 PM 84 64 55% S1319 28 mph 165° @ 0300 PM 84 69 91 54 29.99" 0 0.00 253
Guthrie 10WSW  03:10 PM 91 64 43% S1724 25 mph 209° @ 1115 AM 91 69 90 43 29.94" 0 0.00 772
Happy 1E  03:10 PM 85 63 49% S2025 26 mph 193° @ 0259 PM 85 61 98 48 30.02" 0 0.00 819
Hart 3N  03:10 PM 83 62 52% S1522 24 mph 194° @ 0135 PM 83 61 99 51 30.02" 0 0.00 820
Haskell 1NW  03:10 PM 90 65 47% S1420 23 mph 186° @ 0305 PM 90 71 91 47 29.94" 0 0.00 805
Hereford 2NW  03:10 PM 82 60 49% S1623 24 mph 189° @ 0250 PM 83 63 96 48 30.01" 0 0.00 801
Hobbs NM 5NW  03:10 PM 82 62 51% S1214 17 mph 169° @ 0232 PM 82 64 99 51 30.05" 0 0.00 858
Jayton 1SSE  03:10 PM 88 65 49% S1318 21 mph 199° @ 0135 PM 89 68 93 47 29.96" 0 0.00 507
Knox City 3NW  03:10 PM 92 68 49% S1722 26 mph 178° @ 0305 PM 92 72 93 48 29.94" 0 0.00 736
Lake Alan Henry 1NW  03:10 PM 87 67 50% S1720 23 mph 226° @ 0152 PM 88 70 90 49 29.97" 0 0.00 547
Lamesa 2SE  03:10 PM 85 64 52% S1218 21 mph 184° @ 0135 PM 85 65 96 52 30.01" 0 0.00 633
Lesley 2S  03:10 PM 89 67 48% S1417 26 mph 189° @ 0227 PM 91 69 89 45 29.93" 0 0.00 280
Levelland 4S  03:10 PM 82 62 54% S1117 20 mph 183° @ 0145 PM 82 64 94 54 30.03" 0 0.00 682
Lubbock 3WNW TTU  03:10 PM 84 62 51% SW1015 22 mph 187° @ 0105 PM 85 68 95 49 30.01" 0 0.00 695
Memphis 1NE  03:10 PM 89 65 47% S1522 23 mph 197° @ 0155 PM 89 66 95 47 29.93" 0 0.00 795
Morton 1ENE  03:10 PM 83 62 52% S1216 23 mph 174° @ 0240 PM 83 63 97 51 30.03" 0 0.00 736
Muleshoe 2SSW  03:10 PM 82 63 56% S1419 20 mph 167° @ 0150 PM 82 59 100 55 30.03" 0 0.00 717
New Home  03:10 PM 85 65 52% S1114 21 mph 195° @ 0219 PM 85 66 96 52 30.03" 0 0.00 963
Northfield 1S  03:10 PM 91 64 41% S1622 28 mph 204° @ 0305 PM 92 68 90 41 29.94" 0 0.00 770
O'Donnell 1N  03:10 PM 85 61 47% S1217 23 mph 201° @ 0110 PM 85 68 89 47 30.00" 0 0.00 620
Odell 4ENE  03:10 PM 93 66 42% SW1922 27 mph 176° @ 0131 PM 93 73 85 40 29.92" 0 0.00 756
Olton 6S  03:10 PM 82 62 52% S1722 24 mph 186° @ 0220 PM 82 63 95 50 30.02" 0 0.00 613
Paducah 10SW  03:10 PM 87 65 50% S1521 23 mph 223° @ 0945 AM 89 68 94 49 29.94" 0 0.00 402
Palo Duro 4E (JA Ranch)  03:10 PM 89 65 45% S1620 25 mph 183° @ 0307 PM 90 66 91 43 29.95" 0 0.00 552
Palo Duro Canyon SP Floor  03:10 PM 90 64 42% SW711 21 mph 202° @ 1225 PM 90 69 82 42 29.95" 0 0.00 709
Palo Duro Canyon State Park Rim  03:10 PM 88 62 42% S1822 25 mph 177° @ 1159 AM 88 64 91 41 30.00" 0 0.00 839
Plains 3N  03:10 PM 82 62 53% S1118 20 mph 180° @ 0235 PM 82 64 99 53 30.03" 0 0.00 838
Plainview 1S  03:10 PM 82 64 56% S1523 23 mph 199° @ 0310 PM 82 65 97 56 30.01" 0 0.00 549
Post 1NE  03:10 PM 88 64 48% S1422 23 mph 182° @ 0225 PM 88 70 85 48 29.98" 0 0.00 915
Ralls 1SE  03:10 PM 87 61 45% S1723 24 mph 186° @ 0220 PM 87 64 93 45 30.02" 0 0.00 913
Reese Center  03:10 PM 80 62 55% S1520 23 mph 185° @ 0125 PM 80 64 96 55 30.02" 0 0.00 880
Roaring Springs 3N  03:10 PM 87 68 58% S1623 28 mph 187° @ 0140 PM 87 67 99 58 29.97" 0 0.00 810
Rotan 5W  03:10 PM 87 68 53% S1516 23 mph 195° @ 1248 PM 89 69 94 51 29.97" 0 0.00 369
Seagraves 1SW  03:10 PM 84 65 56% S1217 17 mph 169° @ 0310 PM 84 62 98 56 --0 0.00 884
Seminole 2NNE  03:10 PM 82 62 53% S1114 18 mph 189° @ 0235 PM 83 63 95 52 30.02" 0 0.00 542
Seymour 3NW  03:10 PM 91 67 48% S1318 24 mph 186° @ 0115 PM 92 72 89 47 29.92" 0 0.00 502
Silverton 7ESE  03:10 PM 84 60 46% S1827 29 mph 185° @ 0215 PM 85 66 90 46 30.00" 0 0.00 409
Slaton 2NE  03:10 PM 84 64 52% S1317 25 mph 208° @ 0220 PM 84 66 92 52 30.01" 0 0.00 439
Snyder 3E  03:10 PM 88 68 55% S1218 22 mph 175° @ 0245 PM 88 67 100 55 29.99" 0 0.00 468
Snyder 3SSW  03:10 PM 85 68 57% S1113 21 mph 182° @ 1216 PM 87 69 96 54 29.99" 0 0.00 320
Spur 1W  03:10 PM 86 64 51% SW1320 22 mph 191° @ 0250 PM 87 65 92 49 29.96" 0 0.00 527
Stamford 5ESE  03:10 PM 90 68 47% S1319 23 mph 191° @ 0157 PM 91 70 95 47 29.95" 0 0.00 782
Sundown 8WSW  03:10 PM 82 62 53% S1215 21 mph 172° @ 0145 PM 82 61 97 53 30.03" 0 0.00 657
Tahoka 3NNE  03:10 PM 83 65 54% S1315 22 mph 184° @ 1229 PM 86 66 94 51 30.01" 0 0.00 454
Tatum NM 2SW  03:10 PM 83 61 50% S1320 20 mph 159° @ 0310 PM 84 62 95 49 30.04" 0 0.00 556
Throckmorton 1SW  03:10 PM 92 66 43% S1014 20 mph 146° @ 0248 PM 93 70 93 42 29.94" 0 0.00 990
Tulia 2ENE  03:10 PM 83 62 52% S1926 27 mph 200° @ 0120 PM 84 63 95 50 30.02" 0 0.00 469
Turkey 2WSW  03:10 PM 86 67 53% SE1520 24 mph 177° @ 1230 PM 87 69 90 53 29.95" 0 0.00 701
Umbarger 3NNE  03:10 PM 85 63 47% S2226 28 mph 189° @ 0220 PM 85 62 95 47 30.01" 0 0.00 782
Vigo Park  03:10 PM 86 65 49% S1721 28 mph 184° @ 0209 PM 86 62 98 48 30.01" 0 0.00 797
Weinert 2NNE  03:10 PM 90 68 48% S1417 20 mph 238° @ 0133 PM 90 71 90 48 29.94" 0 0.00 143
Welch  03:10 PM 84 66 56% S1012 21 mph 212° @ 0127 PM 85 63 100 54 30.02" 0 0.00 475
White River Lake 6NW  03:10 PM 87 63 48% S1825 27 mph 166° @ 0305 PM 87 67 92 48 29.98" 0 0.00 621
Wolfforth 6SSW  03:10 PM 83 64 55% S1117 20 mph 181° @ 1255 PM 83 65 97 55 30.02" 0 0.00 906

West Texas Mesonet Home   Site Map/Menu  NWS Lubbock Soil Data  Daily Summary Page  24hr Precip  72hr Precip  Google Plot